Latest Weather Observations for North West 10 Beacon

IDQ60801

Issued at 4:03 am EST Sunday 22 May 2022 (issued every 10 minutes, with the page automatically refreshed every 10 minutes)

About weather observations | Map of weather stations | Latest weather observations for QLD | Other Formats
Station Details ID: 200896 Name: NORTH WEST 10 BEACON Lat: -27.00 Lon: 153.24 Height: 7.0 m
Data from the previous 72 hours. | See also: Recent months for locations in Queensland
Date/Time
EST
Temp
°C
App
Temp
°C
Dew
Point
°C
Rel
Hum
%
Delta-T
°C
Wind Press
QNH
hPa
Press
MSL
hPa
Rain since
9am
mm
Dir  Spd
km/h
Gust
km/h
Spd
kts
Gust
kts
22/04:00am - - - - - ENE 28 43 15 23 - - -
22/03:56am - - - - - E 26 43 14 23 - - -
22/03:30am - - - - - E 20 24 11 13 - - -
22/03:00am - - - - - E 20 24 11 13 - - -
22/02:30am - - - - - ENE 20 24 11 13 - - -
22/02:00am - - - - - E 20 26 11 14 - - -
22/01:30am - - - - - ENE 24 30 13 16 - - -
22/01:00am - - - - - ENE 20 26 11 14 - - -
22/12:30am - - - - - NE 28 33 15 18 - - -
22/12:00am - - - - - ENE 20 26 11 14 - - -
 
Date/Time
EST
Temp
°C
App
Temp
°C
Dew
Point
°C
Rel
Hum
%
Delta-T
°C
Wind Press
QNH
hPa
Press
MSL
hPa
Rain since
9am
mm
Dir  Spd
km/h
Gust
km/h
Spd
kts
Gust
kts
21/11:30pm - - - - - ENE 24 30 13 16 - - -
21/11:00pm - - - - - ENE 26 32 14 17 - - -
21/10:30pm - - - - - ENE 30 37 16 20 - - -
21/10:00pm - - - - - ENE 26 33 14 18 - - -
21/09:30pm - - - - - ENE 17 26 9 14 - - -
21/09:00pm - - - - - E 30 37 16 20 - - -
21/08:30pm - - - - - E 28 44 15 24 - - -
21/08:00pm - - - - - E 30 37 16 20 - - -
21/07:30pm - - - - - E 19 22 10 12 - - -
21/07:00pm - - - - - E 19 22 10 12 - - -
21/06:32pm - - - - - SE 30 44 16 24 - - -
21/06:30pm - - - - - SE 26 33 14 18 - - -
21/06:00pm - - - - - ESE 30 35 16 19 - - -
21/05:30pm - - - - - SE 30 33 16 18 - - -
21/05:16pm - - - - - ESE 19 41 10 22 - - -
21/05:00pm - - - - - E 11 17 6 9 - - -
21/04:30pm - - - - - E 20 24 11 13 - - -
21/04:00pm - - - - - E 37 44 20 24 - - -
21/03:30pm - - - - - ESE 28 33 15 18 - - -
21/03:00pm - - - - - E 35 44 19 24 - - -
21/02:30pm - - - - - E 37 43 20 23 - - -
21/02:00pm - - - - - ENE 39 46 21 25 - - -
21/01:30pm - - - - - ENE 28 33 15 18 - - -
21/01:00pm - - - - - ENE 24 32 13 17 - - -
21/12:30pm - - - - - ENE 28 35 15 19 - - -
21/12:00pm - - - - - ENE 32 37 17 20 - - -
21/11:30am - - - - - ENE 32 37 17 20 - - -
21/11:00am - - - - - ENE 35 43 19 23 - - -
21/10:30am - - - - - ENE 33 41 18 22 - - -
21/10:00am - - - - - E 19 24 10 13 - - -
21/09:30am - - - - - ESE 22 28 12 15 - - -
21/09:00am - - - - - ENE 26 30 14 16 - - -
21/08:30am - - - - - E 17 19 9 10 - - -
21/08:00am - - - - - ESE 13 17 7 9 - - -
21/07:30am - - - - - E 17 22 9 12 - - -
21/07:00am - - - - - E 9 13 5 7 - - -
21/06:30am - - - - - ENE 17 20 9 11 - - -
21/06:00am - - - - - ENE 20 26 11 14 - - -
21/05:30am - - - - - ENE 19 22 10 12 - - -
21/05:00am - - - - - ENE 22 24 12 13 - - -
21/04:30am - - - - - ENE 24 28 13 15 - - -
21/04:00am - - - - - ENE 24 30 13 16 - - -
21/03:30am - - - - - NE 22 28 12 15 - - -
21/03:00am - - - - - ENE 22 28 12 15 - - -
21/02:30am - - - - - NE 24 28 13 15 - - -
21/02:00am - - - - - ENE 26 33 14 18 - - -
21/01:30am - - - - - ENE 24 30 13 16 - - -
21/01:00am - - - - - ENE 22 28 12 15 - - -
21/12:30am - - - - - ENE 24 30 13 16 - - -
21/12:00am - - - - - ENE 24 30 13 16 - - -
 
Date/Time
EST
Temp
°C
App
Temp
°C
Dew
Point
°C
Rel
Hum
%
Delta-T
°C
Wind Press
QNH
hPa
Press
MSL
hPa
Rain since
9am
mm
Dir  Spd
km/h
Gust
km/h
Spd
kts
Gust
kts
20/11:30pm - - - - - NE 26 32 14 17 - - -
20/11:00pm - - - - - NE 30 35 16 19 - - -
20/10:30pm - - - - - ENE 24 32 13 17 - - -
20/10:00pm - - - - - E 26 33 14 18 - - -
20/09:30pm - - - - - ENE 35 43 19 23 - - -
20/09:00pm - - - - - ENE 33 43 18 23 - - -
20/08:30pm - - - - - ENE 26 32 14 17 - - -
20/08:00pm - - - - - ENE 32 37 17 20 - - -
20/07:30pm - - - - - E 37 46 20 25 - - -
20/07:00pm - - - - - E 39 44 21 24 - - -
20/06:30pm - - - - - E 39 46 21 25 - - -
20/06:00pm - - - - - E 37 46 20 25 - - -
20/05:55pm - - - - - E 39 46 21 25 - - -
20/05:30pm - - - - - ESE 37 43 20 23 - - -
20/05:00pm - - - - - ESE 39 46 21 25 - - -
20/04:59pm - - - - - ESE 39 46 21 25 - - -
20/04:30pm - - - - - E 33 46 18 25 - - -
20/04:16pm - - - - - ENE 32 41 17 22 - - -
20/04:00pm - - - - - ENE 39 48 21 26 - - -
20/03:57pm - - - - - E 35 48 19 26 - - -
20/03:30pm - - - - - E 33 43 18 23 - - -
20/03:00pm - - - - - E 32 39 17 21 - - -
20/02:30pm - - - - - ENE 33 43 18 23 - - -
20/02:00pm - - - - - E 33 41 18 22 - - -
20/01:30pm - - - - - ENE 30 37 16 20 - - -
20/01:00pm - - - - - ENE 30 35 16 19 - - -
20/12:30pm - - - - - ENE 32 37 17 20 - - -
20/12:00pm - - - - - ENE 33 41 18 22 - - -
20/11:30am - - - - - ENE 32 39 17 21 - - -
20/11:00am - - - - - E 32 39 17 21 - - -
20/10:30am - - - - - ENE 35 43 19 23 - - -
20/10:00am - - - - - ENE 33 41 18 22 - - -
20/09:30am - - - - - ENE 28 35 15 19 - - -
20/09:00am - - - - - E 32 37 17 20 - - -
20/08:30am - - - - - ENE 28 35 15 19 - - -
20/08:00am - - - - - E 33 39 18 21 - - -
20/07:30am - - - - - E 30 35 16 19 - - -
20/07:00am - - - - - E 32 37 17 20 - - -
20/06:30am - - - - - E 32 39 17 21 - - -
20/06:00am - - - - - E 37 43 20 23 - - -
20/05:30am - - - - - E 33 39 18 21 - - -
20/05:00am - - - - - E 33 39 18 21 - - -
20/04:30am - - - - - E 37 44 20 24 - - -
20/04:00am - - - - - E 33 41 18 22 - - -
20/03:30am - - - - - E 35 39 19 21 - - -
20/03:00am - - - - - ENE 30 37 16 20 - - -
20/02:30am - - - - - ENE 30 35 16 19 - - -
20/02:00am - - - - - ENE 30 35 16 19 - - -
20/01:30am - - - - - ENE 30 35 16 19 - - -
20/01:00am - - - - - ENE 32 37 17 20 - - -
20/12:30am - - - - - ENE 32 37 17 20 - - -
20/12:00am - - - - - ENE 28 35 15 19 - - -
 
Date/Time
EST
Temp
°C
App
Temp
°C
Dew
Point
°C
Rel
Hum
%
Delta-T
°C
Wind Press
QNH
hPa
Press
MSL
hPa
Rain since
9am
mm
Dir  Spd
km/h
Gust
km/h
Spd
kts
Gust
kts
19/11:30pm - - - - - ENE 32 39 17 21 - - -
19/11:00pm - - - - - E 30 35 16 19 - - -
19/10:30pm - - - - - ENE 28 37 15 20 - - -
19/10:00pm - - - - - ENE 28 33 15 18 - - -
19/09:30pm - - - - - E 28 32 15 17 - - -
19/09:00pm - - - - - E 30 39 16 21 - - -
19/08:30pm - - - - - ENE 28 33 15 18 - - -
19/08:00pm - - - - - ENE 26 32 14 17 - - -
19/07:30pm - - - - - E 26 33 14 18 - - -
19/07:00pm - - - - - E 26 32 14 17 - - -
19/06:30pm - - - - - E 28 32 15 17 - - -
19/06:00pm - - - - - E 26 33 14 18 - - -
19/05:30pm - - - - - E 28 33 15 18 - - -
19/05:00pm - - - - - E 28 32 15 17 - - -
19/04:30pm - - - - - E 28 32 15 17 - - -
19/04:00pm - - - - - E 28 32 15 17 - - -
19/03:30pm - - - - - E 30 35 16 19 - - -
19/03:00pm - - - - - E 30 35 16 19 - - -
19/02:30pm - - - - - E 30 35 16 19 - - -
19/02:00pm - - - - - E 30 37 16 20 - - -
19/01:30pm - - - - - E 28 35 15 19 - - -
19/01:00pm - - - - - E 30 37 16 20 - - -
19/12:30pm - - - - - E 30 33 16 18 - - -
19/12:00pm - - - - - ESE 19 26 10 14 - - -
19/11:30am - - - - - ESE 19 32 10 17 - - -
19/11:00am - - - - - E 17 22 9 12 - - -
19/10:30am - - - - - E 19 22 10 12 - - -
19/10:00am - - - - - ENE 19 22 10 12 - - -
19/09:30am - - - - - ENE 19 24 10 13 - - -
19/09:00am - - - - - ENE 20 22 11 12 - - -
19/08:30am - - - - - SE 20 24 11 13 - - -
19/08:00am - - - - - SE 24 28 13 15 - - -
19/07:30am - - - - - SE 22 28 12 15 - - -
19/07:00am - - - - - SE 19 20 10 11 - - -
19/06:30am - - - - - SE 22 26 12 14 - - -
19/06:00am - - - - - SE 22 28 12 15 - - -
19/05:30am - - - - - SE 22 24 12 13 - - -
19/05:00am - - - - - SSE 19 22 10 12 - - -
19/04:30am - - - - - SE 20 24 11 13 - - -

Other formats

Comma delimited format used in spreadsheet applications
http://www.bom.gov.au/fwo/IDQ60801/IDQ60801.99496.axf

JavaScript Object Notation format (JSON) in row-major order
http://www.bom.gov.au/fwo/IDQ60801/IDQ60801.99496.json

Data quality

Most of these data are generated automatically and are frequently updated. Quality checks on data are not normally performed. It is possible for incorrect values to appear. Refer to information at About Latest Weather Observations and please check the disclaimer before using these data.